Terminal Aerodrome Forecast
Issued by NWS

Home | Current Version | Previous Version | Text Only | Print | Product List | Glossary On
Versions: 1 2 3 4 5 6 7 8 9 10 11 12 13 14
000
FTUS43 KJKL 282325
TAFSJS
TAF
KSJS 282325Z 2900/2924 34010G20KT P6SM VCSH OVC080
     FM290400 VRB03KT 6SM -SHRA BR BKN010 OVC060
     FM290800 VRB03KT 1SM BR VCSH OVC009
     FM291400 31003KT P6SM VCSH OVC020
     FM291700 00000KT P6SM VCSH BKN035=

USA.gov is the U.S. government's official web portal to all federal, state and local government web resources and services.